METAR Data
IDs: Format: Raw Decoded Include TAF

Data at: 1621 UTC 19 Sep 2018

KELK 191615Z AUTO 21013G23KT 10SM CLR 29/19 A2997 RMK AO2 T02870192
KELK 191555Z AUTO 21013G19KT 10SM CLR 28/19 A2998 RMK AO2 T02820191
KELK 191535Z AUTO 22013G20KT 10SM CLR 28/19 A2997 RMK AO2 T02760191
KELK 191515Z AUTO 22012G18KT 10SM CLR 27/19 A2997 RMK AO2 T02700186
KELK 191455Z AUTO 20012G15KT 10SM CLR 27/19 A2997 RMK AO2 T02690188
KELK 191435Z AUTO 22009G15KT 10SM CLR 26/19 A2997 RMK AO2 T02590187
KELK 191415Z AUTO 20008KT 10SM CLR 25/19 A2997 RMK AO2 T02480189
KELK 191355Z AUTO 19007KT 10SM CLR 23/19 A2997 RMK AO2 T02340189
KELK 191335Z AUTO 18005KT 10SM CLR 22/19 A2997 RMK AO2 T02200185
KELK 191315Z AUTO 18006KT 10SM CLR 21/18 A2997 RMK AO2 T02110181
KELK 191255Z AUTO 17004KT 10SM CLR 21/18 A2997 RMK AO2 T02060180
KELK 191235Z AUTO 17004KT 10SM CLR 20/18 A2996 RMK AO2 T02010177
KELK 191215Z AUTO 17004KT 10SM CLR 20/18 A2996 RMK AO2 T02010176
KELK 191155Z AUTO 16003KT 10SM CLR 21/18 A2996 RMK AO2 T02050176 10236 20205
KELK 191135Z AUTO 17004KT 10SM CLR 21/18 A2996 RMK AO2 T02060176
KELK 191115Z AUTO 17005KT 10SM CLR 21/18 A2996 RMK AO2 T02100177
KELK 191055Z AUTO 17004KT 10SM CLR 21/18 A2996 RMK AO2 T02130177
KELK 191035Z AUTO 19003KT 10SM CLR 21/18 A2995 RMK AO2 T02110177
KELK 191015Z AUTO 17003KT 10SM CLR 21/18 A2995 RMK AO2 T02110177
KELK 190955Z AUTO 17004KT 10SM CLR 21/18 A2994 RMK AO2 T02120178
KELK 190935Z AUTO 17005KT 10SM CLR 21/18 A2995 RMK AO2 T02130178
KELK 190915Z AUTO 17006KT 10SM CLR 22/18 A2995 RMK AO2 T02170177
KELK 190855Z AUTO 19006KT 10SM CLR 22/18 A2995 RMK AO2 T02210177
KELK 190835Z AUTO 19005KT 10SM CLR 22/18 A2995 RMK AO2 T02220178
KELK 190815Z AUTO 18007KT 10SM CLR 23/18 A2995 RMK AO2 T02250178
KELK 190755Z AUTO 17005KT 10SM CLR 23/18 A2995 RMK AO2 T02250180
KELK 190735Z AUTO 17005KT 10SM CLR 22/18 A2995 RMK AO2 T02240180
KELK 190715Z AUTO 17005KT 10SM CLR 23/18 A2995 RMK AO2 T02260180
KELK 190655Z AUTO 17006KT 10SM CLR 23/18 A2995 RMK AO2 T02320180
KELK 190635Z AUTO 15006KT 10SM SCT060 24/18 A2995 RMK AO2 T02350181
KELK 190615Z AUTO 16006KT 10SM SCT060 24/18 A2995 RMK AO2 T02350183
KELK 190555Z AUTO 16006KT 10SM CLR 24/18 A2995 RMK AO2 T02360183 10310 20233 403290192
KELK 190535Z AUTO 16006KT 10SM CLR 24/19 A2995 RMK AO2 T02380185
KELK 190515Z AUTO 16005KT 10SM CLR 24/19 A2994 RMK AO2 T02400185
KELK 190455Z AUTO 16004KT 10SM CLR 24/19 A2994 RMK AO2 T02350186
KELK 190435Z AUTO 16004KT 10SM CLR 24/19 A2994 RMK AO2 T02410187
KELK 190415Z AUTO 15005KT 10SM CLR 25/19 A2994 RMK AO2 T02450188
KELK 190355Z AUTO 16005KT 10SM CLR 25/19 A2994 RMK AO2 T02450188
KELK 190335Z AUTO 17005KT 10SM CLR 25/19 A2994 RMK AO2 T02520190
KELK 190315Z AUTO 16007KT 10SM CLR 26/19 A2993 RMK AO2 T02560190
KELK 190255Z AUTO 15006KT 10SM SCT060 26/19 A2992 RMK AO2 T02600191
KELK 190235Z AUTO 16006KT 10SM CLR 26/19 A2992 RMK AO2 T02620191
KELK 190215Z AUTO 16007KT 10SM CLR 27/19 A2991 RMK AO2 T02670190
KELK 190155Z AUTO 16007KT 10SM CLR 27/19 A2990 RMK AO2 T02720190
KELK 190135Z AUTO 16006KT 10SM CLR 28/19 A2989 RMK AO2 T02770190
KELK 190115Z AUTO 16008KT 10SM CLR 28/19 A2989 RMK AO2 T02840190
KELK 190055Z AUTO 17009G14KT 10SM SCT060 29/19 A2989 RMK AO2 T02890190
KELK 190035Z AUTO 17010KT 10SM SCT060 30/19 A2988 RMK AO2 T02950191
KELK 190015Z AUTO 17010G15KT 10SM SCT060 30/19 A2988 RMK AO2 T03010190
KELK 182355Z AUTO 18009G18KT 10SM SCT060 31/18 A2988 RMK AO2 T03100182 10329 20307
KELK 182335Z AUTO 19012G19KT 10SM SCT060 SCT070 31/18 A2988 RMK AO2 T03100181
KELK 182315Z AUTO 17012G18KT 10SM SCT060 BKN070 32/19 A2988 RMK AO2 T03190185
KELK 182255Z AUTO 18013G19KT 10SM SCT060 SCT070 32/18 A2988 RMK AO2 T03220184
KELK 182235Z AUTO 19012G20KT 10SM SCT070 SCT080 32/18 A2988 RMK AO2 T03200183
KELK 182215Z AUTO 19012G16KT 10SM SCT070 31/18 A2989 RMK AO2 T03140180
KELK 182150Z AUTO 19015KT 10SM SCT060 SCT070 33/18 A2989 RMK AO2 T03250184
KELK 182135Z AUTO 20014G19KT 10SM SCT060 SCT070 32/18 A2989 RMK AO2 T03230184
KELK 182115Z AUTO 19015G20KT 10SM SCT070 33/19 A2990 RMK AO2 T03260187
KELK 182055Z AUTO 20016G22KT 10SM SCT055 SCT065 33/19 A2990 RMK AO2 T03290190
KELK 182035Z AUTO 18013G22KT 10SM SCT055 SCT065 32/19 A2991 RMK AO2 T03220190
KELK 182015Z AUTO 19016G21KT 10SM SCT050 SCT065 33/19 A2992 RMK AO2 T03260189
KELK 181955Z AUTO 18012G17KT 10SM SCT050 SCT065 32/19 A2993 RMK AO2 T03240189
KELK 181930Z AUTO 20015G22KT 10SM SCT050 32/19 A2994 RMK AO2 T03170186
KELK 181915Z AUTO 20014G19KT 10SM SCT050 SCT065 32/19 A2995 RMK AO2 T03160186
KELK 181855Z AUTO 18014G17KT 10SM SCT050 SCT065 32/19 A2996 RMK AO2 T03220192
KELK 181835Z AUTO 21016G21KT 10SM SCT050 31/19 A2996 RMK AO2 T03100187
KELK 181815Z AUTO 20015G23KT 10SM SCT050 32/19 A2997 RMK AO2 T03180185
KELK 181755Z AUTO 19015G18KT 10SM SCT050 32/19 A2998 RMK AO2 T03190188 10319 20192
KELK 181735Z AUTO 19013KT 10SM BKN047 31/19 A2999 RMK AO2 T03120188
KELK 181715Z AUTO 21014G17KT 10SM SCT043 31/19 A3000 RMK AO2 T03070193
KELK 181655Z AUTO 22015KT 10SM SCT041 30/19 A3001 RMK AO2 T03010193
KELK 181635Z AUTO 23010G15KT 10SM CLR 30/20 A3001 RMK AO2 T02970195
KELK 181615Z AUTO 21013KT 10SM CLR 29/20 A3001 RMK AO2 T02940197
KELK 181555Z AUTO 23011G16KT 10SM CLR 29/20 A3002 RMK AO2 T02850196
KELK 181535Z AUTO 22010G15KT 10SM CLR 28/20 A3002 RMK AO2 T02810200
KELK 181515Z AUTO 22010KT 10SM CLR 27/20 A3003 RMK AO2 T02730198
KELK 181455Z AUTO 22010G16KT 10SM CLR 27/20 A3002 RMK AO2 T02670196
KELK 181435Z AUTO 21008KT 10SM CLR 26/20 A3002 RMK AO2 T02590197
KELK 181415Z AUTO 19005KT 10SM CLR 24/19 A3003 RMK AO2 T02430192
KELK 181355Z AUTO 22005KT 10SM CLR 23/19 A3003 RMK AO2 T02300190
KELK 181335Z AUTO 19004KT 10SM CLR 22/19 A3002 RMK AO2 T02180186
KELK 181315Z AUTO 18004KT 10SM CLR 21/19 A3001 RMK AO2 T02070185
KELK 181255Z AUTO 18003KT 10SM CLR 20/18 A3001 RMK AO2 T01960180
KELK 181235Z AUTO 17004KT 10SM CLR 19/18 A3001 RMK AO2 T01930177
KELK 181215Z AUTO 18004KT 10SM CLR 20/18 A3001 RMK AO2 T01990177
KELK 181155Z AUTO 20003KT 10SM CLR 20/18 A3000 RMK AO2 T02030180 10228 20201
KELK 181135Z AUTO 19003KT 10SM CLR 20/18 A3000 RMK AO2 T02020178
KELK 181115Z AUTO 18004KT 10SM CLR 21/18 A3000 RMK AO2 T02050180
KELK 181055Z AUTO 19003KT 10SM CLR 21/18 A3000 RMK AO2 T02050179
KELK 181035Z AUTO 18003KT 10SM CLR 21/18 A3000 RMK AO2 T02060180
KELK 181015Z AUTO 18003KT 10SM CLR 20/18 A3000 RMK AO2 T02020180
KELK 180955Z AUTO 18005KT 10SM CLR 21/18 A3000 RMK AO2 T02050180
KELK 180935Z AUTO 19005KT 10SM CLR 21/18 A3000 RMK AO2 T02060180
KELK 180915Z AUTO 18005KT 10SM CLR 21/18 A2999 RMK AO2 T02090180
KELK 180855Z AUTO 17005KT 10SM CLR 21/18 A2999 RMK AO2 T02110181
KELK 180835Z AUTO 17005KT 10SM CLR 21/18 A2999 RMK AO2 T02120181
KELK 180815Z AUTO 17005KT 10SM CLR 22/18 A2999 RMK AO2 T02150182
KELK 180755Z AUTO 17004KT 10SM CLR 21/18 A2999 RMK AO2 T02140180
KELK 180735Z AUTO 17004KT 10SM CLR 22/18 A2999 RMK AO2 T02160180
KELK 180715Z AUTO 18004KT 10SM CLR 22/18 A2999 RMK AO2 T02190180
KELK 180655Z AUTO 18005KT 10SM CLR 22/18 A2999 RMK AO2 T02200180
KELK 180635Z AUTO 18004KT 10SM CLR 22/18 A2999 RMK AO2 T02230180
KELK 180615Z AUTO 18003KT 10SM CLR 23/18 A2999 RMK AO2 T02250180
KELK 180555Z AUTO 17004KT 10SM CLR 23/18 A2999 RMK AO2 T02280180 10302 20228 403240202
KELK 180535Z AUTO 18003KT 10SM CLR 23/18 A2999 RMK AO2 T02300180
KELK 180515Z AUTO 18004KT 10SM CLR 23/18 A2999 RMK AO2 T02310180
KELK 180455Z AUTO 18003KT 10SM CLR 23/18 A2999 RMK AO2 T02320180
KELK 180435Z AUTO 17004KT 10SM CLR 23/18 A2999 RMK AO2 T02300180